Terminal Aerodrome Forecast
Issued by NWS Burlington, VT

Home | Current Version | Previous Version | Text Only | Print | Product List | Glossary On
Versions: 1 2 3 4 5 6 7 8 9 10 11 12 13 14 15 16
612
FTUS41 KBTV 251454 AAB
TAFBTV
TAF AMD
KBTV 251454Z 2515/2612 12009KT P6SM -RA BKN035 OVC050
     FM252200 12005KT P6SM VCSH OVC045
     FM260400 VRB04KT P6SM VCSH OVC015
     FM261000 28004KT 5SM -RA BR OVC010=

USA.gov is the U.S. government's official web portal to all federal, state and local government web resources and services.